Time;durP1;ratioP1;P1;durP2;ratioP2;P2;SDS_P1;SDS_P2;PMS_P1;PMS_P2;Temp;Humidity;BMP_temperature;BMP_pressure;BME280_temperature;BME280_humidity;BME280_pressure;Samples;Min_cycle;Max_cycle;Signal;HPM_P1;HPM_P2
2023/09/01 00:00:13;;;;;;;5.80;3.00;;;;;;;;;;5093141;28;20171;-71
2023/09/01 00:03:21;;;;;;;8.83;3.63;;;;;;;;;;5092734;28;20219;-71
2023/09/01 00:06:25;;;;;;;5.03;3.20;;;;;;;;;;5092865;28;20178;-71
2023/09/01 00:09:29;;;;;;;5.93;3.20;;;;;;;;;;5092871;28;20179;-72
2023/09/01 00:12:33;;;;;;;9.90;3.37;;;;;;;;;;5091841;28;20222;-71
2023/09/01 00:15:37;;;;;;;4.03;3.10;;;;;;;;;;5096786;28;20195;-71
2023/09/01 00:18:41;;;;;;;5.93;3.23;;;;;;;;;;5096725;28;20206;-72
2023/09/01 00:21:45;;;;;;;4.43;3.50;;;;;;;;;;5096389;28;20174;-71
2023/09/01 00:24:50;;;;;;;5.37;3.23;;;;;;;;;;5096362;28;20183;-71
2023/09/01 00:27:54;;;;;;;5.27;3.50;;;;;;;;;;5096340;28;20626;-71
2023/09/01 00:31:00;;;;;;;5.37;3.47;;;;;;;;;;5096248;28;20174;-72
2023/09/01 00:34:05;;;;;;;6.80;2.97;;;;;;;;;;5095271;28;20258;-72
2023/09/01 00:37:09;;;;;;;5.03;3.23;;;;;;;;;;5096053;28;20522;-71
2023/09/01 00:40:14;;;;;;;3.90;3.00;;;;;;;;;;5096249;28;20194;-71
2023/09/01 00:43:18;;;;;;;4.83;3.40;;;;;;;;;;5095098;28;20222;-72
2023/09/01 00:46:22;;;;;;;5.83;3.07;;;;;;;;;;5095414;28;20179;-71
2023/09/01 00:49:26;;;;;;;3.87;2.80;;;;;;;;;;5095028;28;20657;-71
2023/09/01 00:52:30;;;;;;;7.13;3.17;;;;;;;;;;5095797;28;20218;-71
2023/09/01 00:55:35;;;;;;;4.47;3.10;;;;;;;;;;5096038;28;20179;-72
2023/09/01 00:58:39;;;;;;;4.90;2.67;;;;;;;;;;5095048;28;20203;-71
2023/09/01 01:01:44;;;;;;;7.10;3.10;;;;;;;;;;5095223;28;20515;-71
2023/09/01 01:04:48;;;;;;;4.73;3.00;;;;;;;;;;5094798;28;20178;-72
2023/09/01 01:08:18;;;;;;;6.80;3.40;;;;;;;;;;5095476;28;20175;-72
2023/09/01 01:11:36;;;;;;;5.67;3.20;;;;;;;;;;5095333;28;20191;-72
2023/09/01 01:14:50;;;;;;;5.13;2.90;;;;;;;;;;5094878;28;20175;-71
2023/09/01 01:17:56;;;;;;;4.67;3.03;;;;;;;;;;5094735;28;20198;-72
2023/09/01 01:21:10;;;;;;;5.03;3.53;;;;;;;;;;5094534;28;20633;-71
2023/09/01 01:24:14;;;;;;;6.60;3.40;;;;;;;;;;5095301;28;20182;-72
2023/09/01 01:27:18;;;;;;;5.03;3.67;;;;;;;;;;5094369;28;20194;-72
2023/09/01 01:30:22;;;;;;;5.97;3.53;;;;;;;;;;5095349;28;20175;-72
2023/09/01 01:33:54;;;;;;;4.83;3.53;;;;;;;;;;5095044;28;20688;-71
2023/09/01 01:37:23;;;;;;;5.40;3.30;;;;;;;;;;5094432;28;20175;-72
2023/09/01 01:40:30;;;;;;;8.47;3.80;;;;;;;;;;5094440;28;20646;-72
2023/09/01 01:43:37;;;;;;;7.67;3.60;;;;;;;;;;5094809;28;20222;-72
2023/09/01 01:46:42;;;;;;;6.07;3.50;;;;;;;;;;5095016;28;20195;-72
2023/09/01 01:49:47;;;;;;;4.80;3.23;;;;;;;;;;5093896;28;20179;-72
2023/09/01 01:52:51;;;;;;;4.67;3.37;;;;;;;;;;5093749;28;20554;-72
2023/09/01 01:55:57;;;;;;;5.13;3.47;;;;;;;;;;5094595;28;20198;-72
2023/09/01 01:59:04;;;;;;;6.93;3.80;;;;;;;;;;5093627;28;20207;-72
2023/09/01 02:02:08;;;;;;;6.83;3.90;;;;;;;;;;5093829;28;20690;-72
2023/09/01 02:05:13;;;;;;;6.37;3.60;;;;;;;;;;5093488;28;20198;-72
2023/09/01 02:08:17;;;;;;;4.87;3.77;;;;;;;;;;5094473;28;20171;-72
2023/09/01 02:11:21;;;;;;;5.17;3.67;;;;;;;;;;5093353;28;20570;-72
2023/09/01 02:14:25;;;;;;;5.70;3.60;;;;;;;;;;5093400;28;20175;-72
2023/09/01 02:17:29;;;;;;;6.97;3.80;;;;;;;;;;5093487;28;20178;-72
2023/09/01 02:20:37;;;;;;;5.53;4.03;;;;;;;;;;5094267;28;20183;-72
2023/09/01 02:23:40;;;;;;;6.90;4.43;;;;;;;;;;5093806;28;20318;-72
2023/09/01 02:26:45;;;;;;;6.77;4.27;;;;;;;;;;5094083;28;20179;-72
2023/09/01 02:29:49;;;;;;;7.33;4.40;;;;;;;;;;5093300;28;20179;-72
2023/09/01 02:32:53;;;;;;;7.13;4.47;;;;;;;;;;5093125;28;20214;-72
2023/09/01 02:36:26;;;;;;;5.97;4.40;;;;;;;;;;5093377;28;20178;-72
2023/09/01 02:39:30;;;;;;;6.20;4.30;;;;;;;;;;5093175;28;20210;-71
2023/09/01 02:42:34;;;;;;;7.40;4.70;;;;;;;;;;5093296;28;20218;-72
2023/09/01 02:45:38;;;;;;;6.33;4.30;;;;;;;;;;5093892;28;20201;-72
2023/09/01 02:48:43;;;;;;;6.97;5.13;;;;;;;;;;5093951;28;20630;-72
2023/09/01 02:51:48;;;;;;;8.37;5.00;;;;;;;;;;5093033;28;20179;-71
2023/09/01 02:54:52;;;;;;;5.40;4.73;;;;;;;;;;5092785;28;20186;-72
2023/09/01 02:57:56;;;;;;;6.63;5.20;;;;;;;;;;5092883;28;20207;-71
2023/09/01 03:01:08;;;;;;;5.83;5.17;;;;;;;;;;5092957;28;20179;-72
2023/09/01 03:04:12;;;;;;;8.47;5.17;;;;;;;;;;5092883;28;20183;-72
2023/09/01 03:07:17;;;;;;;7.63;5.27;;;;;;;;;;5092685;28;20175;-71
2023/09/01 03:10:21;;;;;;;8.20;5.00;;;;;;;;;;5092557;28;20195;-71
2023/09/01 03:13:25;;;;;;;7.57;5.53;;;;;;;;;;5092721;28;20280;-71
2023/09/01 03:16:30;;;;;;;9.30;6.50;;;;;;;;;;5092797;28;20182;-71
2023/09/01 03:19:35;;;;;;;9.43;5.60;;;;;;;;;;5081096;28;20207;-71
2023/09/01 03:22:39;;;;;;;7.10;5.33;;;;;;;;;;5092464;28;20558;-71
2023/09/01 03:25:43;;;;;;;6.50;5.50;;;;;;;;;;5092366;28;20175;-71
2023/09/01 03:28:48;;;;;;;6.77;5.37;;;;;;;;;;5093453;28;20510;-71
2023/09/01 03:31:52;;;;;;;9.53;6.40;;;;;;;;;;5092226;28;20174;-71
2023/09/01 03:34:58;;;;;;;9.00;5.77;;;;;;;;;;5092243;28;20514;-71
2023/09/01 03:38:03;;;;;;;10.23;6.20;;;;;;;;;;5092325;28;20179;-71
2023/09/01 03:41:07;;;;;;;6.57;5.87;;;;;;;;;;5092600;28;20178;-71
2023/09/01 03:44:12;;;;;;;8.53;5.80;;;;;;;;;;5092515;28;20171;-71
2023/09/01 03:47:16;;;;;;;8.17;6.10;;;;;;;;;;5080846;28;20179;-71
2023/09/01 03:50:20;;;;;;;8.20;6.40;;;;;;;;;;5096279;28;20515;-71
2023/09/01 03:53:24;;;;;;;8.47;6.10;;;;;;;;;;5096572;28;20214;-71
2023/09/01 03:56:29;;;;;;;6.77;5.90;;;;;;;;;;5096293;28;20179;-71
2023/09/01 03:59:34;;;;;;;10.43;6.07;;;;;;;;;;5096740;28;20207;-71
2023/09/01 04:02:40;;;;;;;7.23;5.87;;;;;;;;;;5096828;28;20218;-71
2023/09/01 04:05:44;;;;;;;10.17;5.80;;;;;;;;;;5095979;28;20187;-71
2023/09/01 04:08:48;;;;;;;8.50;5.30;;;;;;;;;;5096127;28;20183;-71
2023/09/01 04:11:54;;;;;;;7.63;6.53;;;;;;;;;;5096475;28;20175;-71
2023/09/01 04:14:58;;;;;;;8.67;6.63;;;;;;;;;;5096884;28;20175;-71
2023/09/01 04:18:03;;;;;;;8.80;6.37;;;;;;;;;;5095908;28;20183;-71
2023/09/01 04:21:07;;;;;;;7.37;5.60;;;;;;;;;;5096005;28;20179;-71
2023/09/01 04:24:11;;;;;;;7.93;6.30;;;;;;;;;;5095572;28;20175;-71
2023/09/01 04:27:15;;;;;;;9.73;6.60;;;;;;;;;;5096403;28;20179;-71
2023/09/01 04:30:20;;;;;;;10.77;6.90;;;;;;;;;;5095446;28;20186;-71
2023/09/01 04:33:23;;;;;;;7.63;6.43;;;;;;;;;;5095278;28;20215;-71
2023/09/01 04:36:28;;;;;;;11.83;7.23;;;;;;;;;;5095357;28;20187;-71
2023/09/01 04:39:33;;;;;;;13.63;7.70;;;;;;;;;;5096309;28;20550;-71
2023/09/01 04:42:37;;;;;;;9.90;7.33;;;;;;;;;;5095151;28;20214;-71
2023/09/01 04:45:45;;;;;;;9.73;7.20;;;;;;;;;;5095987;28;20544;-71
2023/09/01 04:48:52;;;;;;;8.20;6.70;;;;;;;;;;5095355;28;20175;-71
2023/09/01 04:51:57;;;;;;;8.80;6.60;;;;;;;;;;5095278;28;20175;-71
2023/09/01 04:55:04;;;;;;;10.63;7.87;;;;;;;;;;5095346;28;20186;-71
2023/09/01 04:58:08;;;;;;;9.30;7.27;;;;;;;;;;5095492;28;20175;-71
2023/09/01 05:01:12;;;;;;;9.00;6.63;;;;;;;;;;5094508;28;20179;-72
2023/09/01 05:04:16;;;;;;;9.37;5.93;;;;;;;;;;5095168;28;20510;-72
2023/09/01 05:07:20;;;;;;;7.37;5.73;;;;;;;;;;5095868;28;20175;-75
2023/09/01 05:10:25;;;;;;;8.83;5.17;;;;;;;;;;5094139;28;20202;-71
2023/09/01 05:13:28;;;;;;;6.77;5.23;;;;;;;;;;5094583;28;20210;-72
2023/09/01 05:16:32;;;;;;;6.17;4.13;;;;;;;;;;5082967;28;20171;-72
2023/09/01 05:19:36;;;;;;;5.73;4.27;;;;;;;;;;5094541;28;20203;-72
2023/09/01 05:22:41;;;;;;;7.73;4.50;;;;;;;;;;5094324;28;20211;-72
2023/09/01 05:25:51;;;;;;;6.10;4.10;;;;;;;;;;5094417;28;20174;-72
2023/09/01 05:28:55;;;;;;;7.37;4.00;;;;;;;;;;5094245;28;20183;-72
2023/09/01 05:31:59;;;;;;;5.07;3.87;;;;;;;;;;5094184;28;20183;-71
2023/09/01 05:35:04;;;;;;;4.00;3.60;;;;;;;;;;5094150;28;20170;-72
2023/09/01 05:38:09;;;;;;;4.90;3.43;;;;;;;;;;5093998;28;20646;-72
2023/09/01 05:41:14;;;;;;;7.40;4.00;;;;;;;;;;5093969;28;20179;-72
2023/09/01 05:44:20;;;;;;;4.40;3.87;;;;;;;;;;5082312;28;20198;-72
2023/09/01 05:47:24;;;;;;;5.30;3.60;;;;;;;;;;5093951;28;20175;-72
2023/09/01 05:50:28;;;;;;;3.90;3.20;;;;;;;;;;5094012;28;20630;-72
2023/09/01 05:53:32;;;;;;;5.23;3.57;;;;;;;;;;5094605;28;20222;-72
2023/09/01 05:56:36;;;;;;;4.67;3.77;;;;;;;;;;5094739;28;20179;-72
2023/09/01 05:59:41;;;;;;;5.27;3.73;;;;;;;;;;5094727;28;20539;-72
2023/09/01 06:02:45;;;;;;;4.30;3.30;;;;;;;;;;5094247;28;20693;-72
2023/09/01 06:05:49;;;;;;;4.23;3.77;;;;;;;;;;5093582;28;20179;-72
2023/09/01 06:08:53;;;;;;;4.10;3.70;;;;;;;;;;5094486;28;20171;-72
2023/09/01 06:11:57;;;;;;;6.97;3.40;;;;;;;;;;5093259;28;20171;-72
2023/09/01 06:15:01;;;;;;;4.77;3.00;;;;;;;;;;5094078;28;20522;-72
2023/09/01 06:18:10;;;;;;;10.73;3.73;;;;;;;;;;5075906;28;20191;-71
2023/09/01 06:21:17;;;;;;;3.90;2.97;;;;;;;;;;5074937;28;20199;-72
2023/09/01 06:24:21;;;;;;;4.37;3.00;;;;;;;;;;5073821;28;20175;-72
2023/09/01 06:27:25;;;;;;;4.53;2.83;;;;;;;;;;5072814;28;20195;-72
2023/09/01 06:30:29;;;;;;;4.23;3.00;;;;;;;;;;5073666;28;20168;-72
2023/09/01 06:33:33;;;;;;;3.63;2.77;;;;;;;;;;5073659;28;20219;-72
2023/09/01 06:36:37;;;;;;;4.03;2.70;;;;;;;;;;5073569;28;20547;-72
2023/09/01 06:39:41;;;;;;;3.27;2.80;;;;;;;;;;5073738;28;20203;-72
2023/09/01 06:42:46;;;;;;;4.87;3.20;;;;;;;;;;5073411;28;20211;-72
2023/09/01 06:45:50;;;;;;;5.17;2.80;;;;;;;;;;5074071;28;20520;-72
2023/09/01 06:48:54;;;;;;;3.60;2.77;;;;;;;;;;5073862;28;20175;-72
2023/09/01 06:51:59;;;;;;;3.80;2.70;;;;;;;;;;5073365;28;20179;-72
2023/09/01 06:55:03;;;;;;;4.17;3.13;;;;;;;;;;5073447;28;20179;-72
2023/09/01 06:58:07;;;;;;;3.20;2.80;;;;;;;;;;5073329;28;20175;-72
2023/09/01 07:01:12;;;;;;;4.70;2.40;;;;;;;;;;5073220;28;20551;-73
2023/09/01 07:04:16;;;;;;;3.43;2.20;;;;;;;;;;5073377;28;20179;-72
2023/09/01 07:07:22;;;;;;;3.27;2.70;;;;;;;;;;5073396;28;20591;-72
2023/09/01 07:10:26;;;;;;;3.33;2.33;;;;;;;;;;5072152;28;20195;-72
2023/09/01 07:13:30;;;;;;;15.20;11.73;;;;;;;;;;5073019;28;20211;-72
2023/09/01 07:16:34;;;;;;;5.87;4.63;;;;;;;;;;5073324;28;20542;-72
2023/09/01 07:19:39;;;;;;;3.83;2.60;;;;;;;;;;5073059;28;20207;-73
2023/09/01 07:22:43;;;;;;;4.43;2.50;;;;;;;;;;5072876;28;20222;-72
2023/09/01 07:25:47;;;;;;;4.37;2.87;;;;;;;;;;5072167;28;20539;-72
2023/09/01 07:28:51;;;;;;;4.27;2.30;;;;;;;;;;5072276;28;20602;-72
2023/09/01 07:31:55;;;;;;;3.37;2.90;;;;;;;;;;5072862;28;20171;-72
2023/09/01 07:34:59;;;;;;;4.03;2.83;;;;;;;;;;5072855;28;20179;-72
2023/09/01 07:38:04;;;;;;;4.00;3.00;;;;;;;;;;5073097;28;20176;-72
2023/09/01 07:41:08;;;;;;;6.40;2.87;;;;;;;;;;5072659;28;20203;-73
2023/09/01 07:44:16;;;;;;;3.30;1.97;;;;;;;;;;5072794;28;20179;-73
2023/09/01 07:47:20;;;;;;;2.97;2.17;;;;;;;;;;5073140;28;20176;-72
2023/09/01 07:50:29;;;;;;;4.53;2.20;;;;;;;;;;5073070;28;20171;-73
2023/09/01 07:53:33;;;;;;;3.40;2.10;;;;;;;;;;5072844;28;20223;-73
2023/09/01 07:56:38;;;;;;;3.00;1.93;;;;;;;;;;5072772;28;20183;-73
2023/09/01 07:59:42;;;;;;;2.90;1.67;;;;;;;;;;5072798;28;20215;-73
2023/09/01 08:02:47;;;;;;;5.70;2.00;;;;;;;;;;5072463;28;20571;-72
2023/09/01 08:05:51;;;;;;;3.30;1.67;;;;;;;;;;5072601;28;20180;-72
2023/09/01 08:08:56;;;;;;;4.90;1.80;;;;;;;;;;5072560;28;20175;-72
2023/09/01 08:12:00;;;;;;;3.53;1.97;;;;;;;;;;5072405;28;20184;-74
2023/09/01 08:15:05;;;;;;;2.97;1.50;;;;;;;;;;5072486;28;20179;-72
2023/09/01 08:18:09;;;;;;;3.33;1.90;;;;;;;;;;5072734;28;20180;-72
2023/09/01 08:21:14;;;;;;;4.00;1.93;;;;;;;;;;5082802;28;20219;-72
2023/09/01 08:24:17;;;;;;;4.13;1.70;;;;;;;;;;5072391;28;20179;-72
2023/09/01 08:27:22;;;;;;;3.40;1.70;;;;;;;;;;5079473;28;20203;-72
2023/09/01 08:30:26;;;;;;;2.57;1.83;;;;;;;;;;5092767;28;20637;-73
2023/09/01 08:33:31;;;;;;;2.93;1.50;;;;;;;;;;5092466;28;20210;-73
2023/09/01 08:36:35;;;;;;;2.67;1.63;;;;;;;;;;5096257;28;20179;-73
2023/09/01 08:39:39;;;;;;;5.20;1.70;;;;;;;;;;5096333;28;20215;-73
2023/09/01 08:42:48;;;;;;;3.93;1.83;;;;;;;;;;5095950;28;20226;-73
2023/09/01 08:45:53;;;;;;;2.97;1.50;;;;;;;;;;5096282;28;20629;-72
2023/09/01 08:48:58;;;;;;;2.80;1.50;;;;;;;;;;5096079;28;20179;-72
2023/09/01 08:52:03;;;;;;;2.53;1.70;;;;;;;;;;5095824;28;20210;-73
2023/09/01 08:55:07;;;;;;;6.57;4.67;;;;;;;;;;5095630;28;20174;-73
2023/09/01 08:58:11;;;;;;;10.83;8.57;;;;;;;;;;5095698;28;20186;-72
2023/09/01 09:01:15;;;;;;;16.30;12.30;;;;;;;;;;5095548;28;20542;-73
2023/09/01 09:04:20;;;;;;;9.23;7.20;;;;;;;;;;5094919;28;20186;-73
2023/09/01 09:07:24;;;;;;;5.17;2.13;;;;;;;;;;5095971;28;20519;-73
2023/09/01 09:10:39;;;;;;;5.30;1.53;;;;;;;;;;5095550;28;20195;-73
2023/09/01 09:13:43;;;;;;;3.93;1.87;;;;;;;;;;5095506;28;20323;-72
2023/09/01 09:16:56;;;;;;;1.87;1.50;;;;;;;;;;5095696;28;20178;-72
2023/09/01 09:20:00;;;;;;;2.63;1.80;;;;;;;;;;5095468;28;20669;-72
2023/09/01 09:23:04;;;;;;;1.87;1.50;;;;;;;;;;5095286;28;20677;-72
2023/09/01 09:26:08;;;;;;;2.20;1.60;;;;;;;;;;5095391;28;20179;-72
2023/09/01 09:29:14;;;;;;;2.70;1.50;;;;;;;;;;5095518;28;20183;-72
2023/09/01 09:32:23;;;;;;;2.13;1.37;;;;;;;;;;5095315;28;20206;-72
2023/09/01 09:35:27;;;;;;;2.87;1.60;;;;;;;;;;5095234;28;20183;-72
2023/09/01 09:38:42;;;;;;;1.77;1.50;;;;;;;;;;5095360;28;20175;-71
2023/09/01 09:41:47;;;;;;;2.93;1.40;;;;;;;;;;5094783;28;20551;-72
2023/09/01 09:44:53;;;;;;;1.23;1.13;;;;;;;;;;5095483;28;20187;-72
2023/09/01 09:48:05;;;;;;;15.47;10.37;;;;;;;;;;5095023;28;20245;-71
2023/09/01 09:51:10;;;;;;;32.17;16.53;;;;;;;;;;5094763;28;20183;-72
2023/09/01 09:54:18;;;;;;;42.90;19.40;;;;;;;;;;5095136;28;20190;-72
2023/09/01 09:57:23;;;;;;;10.57;6.77;;;;;;;;;;5088116;28;20224;-71
2023/09/01 10:00:29;;;;;;;6.60;5.20;;;;;;;;;;5094537;28;20219;-71
2023/09/01 10:03:34;;;;;;;4.50;2.40;;;;;;;;;;5094351;28;20218;-71
2023/09/01 10:06:39;;;;;;;2.57;1.60;;;;;;;;;;5094503;28;20202;-72
2023/09/01 10:09:44;;;;;;;1.73;1.63;;;;;;;;;;5094331;28;20199;-72
2023/09/01 10:12:50;;;;;;;3.60;1.70;;;;;;;;;;5094507;28;20203;-71
2023/09/01 10:15:55;;;;;;;2.17;1.30;;;;;;;;;;5094158;28;20208;-71
2023/09/01 10:19:00;;;;;;;2.63;1.50;;;;;;;;;;5094232;28;20181;-72
2023/09/01 10:22:04;;;;;;;1.80;1.50;;;;;;;;;;5093996;28;20230;-71
2023/09/01 10:25:16;;;;;;;2.87;1.30;;;;;;;;;;5094075;28;20179;-72
2023/09/01 10:28:22;;;;;;;1.67;1.30;;;;;;;;;;5094622;28;20172;-72
2023/09/01 10:31:28;;;;;;;3.07;1.27;;;;;;;;;;5093758;28;20192;-73
2023/09/01 10:34:32;;;;;;;4.60;1.17;;;;;;;;;;5093176;28;20178;-73
2023/09/01 10:37:36;;;;;;;4.80;1.30;;;;;;;;;;5093904;28;20635;-73
2023/09/01 10:40:41;;;;;;;3.13;1.47;;;;;;;;;;5094126;28;20214;-73
2023/09/01 10:43:52;;;;;;;1.92;1.10;;;;;;;;;;5093194;28;20211;-73
2023/09/01 10:47:31;;;;;;;1.58;1.10;;;;;;;;;;5094282;28;20182;-73
2023/09/01 10:50:35;;;;;;;2.53;1.25;;;;;;;;;;5092951;28;20182;-73
2023/09/01 10:53:39;;;;;;;2.47;1.10;;;;;;;;;;5093908;28;20208;-74
2023/09/01 10:56:55;;;;;;;1.40;0.98;;;;;;;;;;5093505;28;20523;-73
2023/09/01 10:59:59;;;;;;;1.98;1.00;;;;;;;;;;5093480;28;20632;-72
2023/09/01 11:03:27;;;;;;;3.53;1.40;;;;;;;;;;5093506;28;20217;-73
2023/09/01 11:06:57;;;;;;;3.13;1.30;;;;;;;;;;5093404;28;20171;-72
2023/09/01 11:10:02;;;;;;;2.38;1.20;;;;;;;;;;5093267;28;20199;-72
2023/09/01 11:13:18;;;;;;;3.58;1.10;;;;;;;;;;5093316;28;20214;-72
2023/09/01 11:16:23;;;;;;;1.50;0.98;;;;;;;;;;5093638;28;20527;-73
2023/09/01 11:19:27;;;;;;;2.28;1.15;;;;;;;;;;5093712;28;20179;-73
2023/09/01 11:22:31;;;;;;;5.60;1.17;;;;;;;;;;5093481;28;20221;-73
2023/09/01 11:25:35;;;;;;;2.13;1.00;;;;;;;;;;5093280;28;20176;-72
2023/09/01 11:28:39;;;;;;;2.83;1.38;;;;;;;;;;5093542;28;20513;-73
2023/09/01 11:31:44;;;;;;;1.67;1.10;;;;;;;;;;5093069;28;20177;-74
2023/09/01 11:34:49;;;;;;;1.83;1.20;;;;;;;;;;5093370;28;20661;-73
2023/09/01 11:37:54;;;;;;;2.08;1.13;;;;;;;;;;5092929;28;20194;-74
2023/09/01 11:40:59;;;;;;;1.92;1.20;;;;;;;;;;5092138;28;20670;-73
2023/09/01 11:44:03;;;;;;;2.50;1.10;;;;;;;;;;5092996;28;20212;-73
2023/09/01 11:47:11;;;;;;;1.60;1.10;;;;;;;;;;5092980;28;20526;-73
2023/09/01 11:50:15;;;;;;;1.17;0.90;;;;;;;;;;5092863;28;20672;-73
2023/09/01 11:53:28;;;;;;;0.98;0.90;;;;;;;;;;5092846;28;20216;-73
2023/09/01 11:56:32;;;;;;;2.70;1.02;;;;;;;;;;5093197;28;20181;-73
2023/09/01 11:59:44;;;;;;;2.88;0.70;;;;;;;;;;5092902;28;20537;-73
2023/09/01 12:02:48;;;;;;;1.00;0.90;;;;;;;;;;5093130;28;20200;-73
2023/09/01 12:05:52;;;;;;;1.15;0.98;;;;;;;;;;5093024;28;20177;-73
2023/09/01 12:09:11;;;;;;;1.48;1.02;;;;;;;;;;5093082;28;20177;-73
2023/09/01 12:12:15;;;;;;;1.52;0.98;;;;;;;;;;5096600;28;20205;-73
2023/09/01 12:15:19;;;;;;;1.88;1.02;;;;;;;;;;5096546;28;20516;-73
2023/09/01 12:18:34;;;;;;;2.03;0.93;;;;;;;;;;5097059;28;20199;-73
2023/09/01 12:21:38;;;;;;;1.45;0.82;;;;;;;;;;5095782;28;20210;-73
2023/09/01 12:24:55;;;;;;;3.70;1.02;;;;;;;;;;5096308;28;20192;-73
2023/09/01 12:27:59;;;;;;;1.15;0.85;;;;;;;;;;5096496;28;20179;-73
2023/09/01 12:31:05;;;;;;;1.85;1.27;;;;;;;;;;5096769;28;20171;-73
2023/09/01 12:34:09;;;;;;;1.58;0.80;;;;;;;;;;5096625;28;20179;-73
2023/09/01 12:37:14;;;;;;;3.30;1.10;;;;;;;;;;5096424;28;20624;-73
2023/09/01 12:40:18;;;;;;;2.72;1.05;;;;;;;;;;5096364;28;20182;-73
2023/09/01 12:43:22;;;;;;;1.73;0.90;;;;;;;;;;5096202;28;20214;-73
2023/09/01 12:46:27;;;;;;;3.25;1.10;;;;;;;;;;5096024;28;20625;-73
2023/09/01 12:49:31;;;;;;;7.47;1.80;;;;;;;;;;5096163;28;20190;-73
2023/09/01 12:52:35;;;;;;;71.53;13.70;;;;;;;;;;5095736;28;20218;-73
2023/09/01 12:55:40;;;;;;;6.03;1.40;;;;;;;;;;5095795;28;20182;-73
2023/09/01 12:58:44;;;;;;;2.33;1.00;;;;;;;;;;5095893;28;20180;-73
2023/09/01 13:01:48;;;;;;;96.05;29.45;;;;;;;;;;5095529;28;20210;-73
2023/09/01 13:04:56;;;;;;;9.57;3.40;;;;;;;;;;5095641;28;20182;-74
2023/09/01 13:08:01;;;;;;;4.40;0.90;;;;;;;;;;5094754;28;20176;-74
2023/09/01 13:11:09;;;;;;;4.05;1.27;;;;;;;;;;5095384;28;20200;-74
2023/09/01 13:14:14;;;;;;;3.03;1.15;;;;;;;;;;5095509;28;20181;-73
2023/09/01 13:17:18;;;;;;;9.88;1.27;;;;;;;;;;5095392;28;20169;-73
2023/09/01 13:20:22;;;;;;;5.63;1.83;;;;;;;;;;5095016;28;20169;-73
2023/09/01 13:23:26;;;;;;;9.80;2.00;;;;;;;;;;5094872;28;20215;-72
2023/09/01 13:26:30;;;;;;;6.75;1.63;;;;;;;;;;5095101;28;20194;-71
2023/09/01 13:29:34;;;;;;;3.27;1.20;;;;;;;;;;5095624;28;20174;-72
2023/09/01 13:32:38;;;;;;;2.73;1.23;;;;;;;;;;5095093;28;20548;-72
2023/09/01 13:35:43;;;;;;;1.63;1.00;;;;;;;;;;5095510;28;20193;-72
2023/09/01 13:38:49;;;;;;;1.33;0.87;;;;;;;;;;5095230;28;20177;-72
2023/09/01 13:41:53;;;;;;;2.23;0.87;;;;;;;;;;5095153;28;20205;-72
2023/09/01 13:44:58;;;;;;;4.50;1.00;;;;;;;;;;5093919;28;20193;-72
2023/09/01 13:48:02;;;;;;;2.67;1.00;;;;;;;;;;5094753;28;20200;-72
2023/09/01 13:51:06;;;;;;;4.80;2.27;;;;;;;;;;5094649;28;20177;-72
2023/09/01 13:54:10;;;;;;;5.90;2.30;;;;;;;;;;5093817;28;20175;-71
2023/09/01 13:57:14;;;;;;;9.33;3.30;;;;;;;;;;5094564;28;20176;-73
2023/09/01 14:00:18;;;;;;;4.70;2.80;;;;;;;;;;5093901;28;20179;-73
2023/09/01 14:03:23;;;;;;;5.40;2.80;;;;;;;;;;5094472;28;20548;-72
2023/09/01 14:06:27;;;;;;;7.17;3.87;;;;;;;;;;5093537;28;20186;-72
2023/09/01 14:09:31;;;;;;;7.87;4.03;;;;;;;;;;5093584;28;20644;-72
2023/09/01 14:12:35;;;;;;;2.58;1.25;;;;;;;;;;5094320;28;20214;-72
2023/09/01 14:15:39;;;;;;;1.92;1.00;;;;;;;;;;5094483;28;20533;-73
2023/09/01 14:18:44;;;;;;;3.90;0.88;;;;;;;;;;5094094;28;20187;-73
2023/09/01 14:21:48;;;;;;;1.35;0.90;;;;;;;;;;5093559;28;20659;-73
2023/09/01 14:24:52;;;;;;;2.63;0.80;;;;;;;;;;5094041;28;20200;-72
2023/09/01 14:27:56;;;;;;;2.22;1.20;;;;;;;;;;5093465;28;20200;-72
2023/09/01 14:31:00;;;;;;;4.63;1.17;;;;;;;;;;5094241;28;20178;-72
2023/09/01 14:34:04;;;;;;;1.77;1.00;;;;;;;;;;5093558;28;20696;-72
2023/09/01 14:37:09;;;;;;;5.10;1.23;;;;;;;;;;5094153;28;20177;-72
2023/09/01 14:40:13;;;;;;;1.38;0.80;;;;;;;;;;5093831;28;20198;-73
2023/09/01 14:43:19;;;;;;;1.17;0.77;;;;;;;;;;5093563;28;20225;-72
2023/09/01 14:46:23;;;;;;;1.45;0.93;;;;;;;;;;5093893;28;20177;-72
2023/09/01 14:49:29;;;;;;;3.47;0.90;;;;;;;;;;5093985;28;20191;-72
2023/09/01 14:52:33;;;;;;;3.72;1.10;;;;;;;;;;5093810;28;20668;-72
2023/09/01 14:55:37;;;;;;;2.38;1.20;;;;;;;;;;5093518;28;20173;-72
2023/09/01 14:58:41;;;;;;;3.00;1.20;;;;;;;;;;5093810;28;20182;-72
2023/09/01 15:01:45;;;;;;;3.10;1.20;;;;;;;;;;5093277;28;20546;-72
2023/09/01 15:04:49;;;;;;;2.72;1.10;;;;;;;;;;5093754;28;20190;-72
2023/09/01 15:07:53;;;;;;;1.48;0.90;;;;;;;;;;5093674;28;20185;-72
2023/09/01 15:11:02;;;;;;;1.55;1.02;;;;;;;;;;5093386;28;20202;-72
2023/09/01 15:14:07;;;;;;;4.80;1.15;;;;;;;;;;5093125;28;20212;-72
2023/09/01 15:17:11;;;;;;;3.17;0.95;;;;;;;;;;5093480;28;20185;-71
2023/09/01 15:20:16;;;;;;;1.88;1.05;;;;;;;;;;5093242;28;20530;-73
2023/09/01 15:23:20;;;;;;;1.17;0.82;;;;;;;;;;5093499;28;20230;-72
2023/09/01 15:26:27;;;;;;;3.65;1.00;;;;;;;;;;5093055;28;20194;-71
2023/09/01 15:29:32;;;;;;;1.80;0.88;;;;;;;;;;5093155;28;20180;-71
2023/09/01 15:32:36;;;;;;;2.05;1.10;;;;;;;;;;5092986;28;20209;-71
2023/09/01 15:35:41;;;;;;;2.83;1.20;;;;;;;;;;5093031;28;20187;-72
2023/09/01 15:38:44;;;;;;;2.70;0.80;;;;;;;;;;5093307;28;20620;-72
2023/09/01 15:41:49;;;;;;;2.38;1.00;;;;;;;;;;5092770;28;20211;-72
2023/09/01 15:44:53;;;;;;;2.10;1.00;;;;;;;;;;5096271;28;20181;-72
2023/09/01 15:47:57;;;;;;;1.83;1.10;;;;;;;;;;5097120;28;20179;-72
2023/09/01 15:51:01;;;;;;;1.55;1.10;;;;;;;;;;5097315;28;20179;-72
2023/09/01 15:54:05;;;;;;;1.35;0.82;;;;;;;;;;5096618;28;20221;-72
2023/09/01 15:57:10;;;;;;;2.42;1.30;;;;;;;;;;5096912;28;20195;-72
2023/09/01 16:00:14;;;;;;;1.20;1.00;;;;;;;;;;5096918;28;20181;-72
2023/09/01 16:03:18;;;;;;;1.83;1.10;;;;;;;;;;5096985;28;20226;-73
2023/09/01 16:06:23;;;;;;;2.83;1.10;;;;;;;;;;5096775;28;20520;-73
2023/09/01 16:09:27;;;;;;;2.08;1.20;;;;;;;;;;5096747;28;20542;-73
2023/09/01 16:12:31;;;;;;;2.10;1.70;;;;;;;;;;5096566;28;20209;-73
2023/09/01 16:15:35;;;;;;;2.57;1.40;;;;;;;;;;5095807;28;20179;-73
2023/09/01 16:18:39;;;;;;;2.10;1.17;;;;;;;;;;5096601;28;20181;-73
2023/09/01 16:21:44;;;;;;;1.80;1.13;;;;;;;;;;5096306;28;20176;-73
2023/09/01 16:24:47;;;;;;;2.43;0.93;;;;;;;;;;5096840;28;20178;-73
2023/09/01 16:27:52;;;;;;;1.87;1.13;;;;;;;;;;5096591;28;20181;-73
2023/09/01 16:30:56;;;;;;;2.53;1.50;;;;;;;;;;5096566;28;20507;-73
2023/09/01 16:34:00;;;;;;;3.33;1.30;;;;;;;;;;5096304;28;20213;-72
2023/09/01 16:37:04;;;;;;;4.87;1.47;;;;;;;;;;5096303;28;20202;-73
2023/09/01 16:40:09;;;;;;;1.80;1.30;;;;;;;;;;5096166;28;20181;-74
2023/09/01 16:43:13;;;;;;;2.47;1.27;;;;;;;;;;5096032;28;20229;-74
2023/09/01 16:46:17;;;;;;;3.37;1.23;;;;;;;;;;5095157;28;20185;-73
2023/09/01 16:49:21;;;;;;;1.20;1.10;;;;;;;;;;5096547;28;20185;-73
2023/09/01 16:52:26;;;;;;;3.57;1.33;;;;;;;;;;5096309;28;20212;-73
2023/09/01 16:55:30;;;;;;;6.77;1.30;;;;;;;;;;5094376;28;20180;-73
2023/09/01 16:58:34;;;;;;;3.50;1.57;;;;;;;;;;5095297;28;20172;-73
2023/09/01 17:01:38;;;;;;;2.43;1.40;;;;;;;;;;5095783;28;20185;-73
2023/09/01 17:04:43;;;;;;;1.80;1.20;;;;;;;;;;5095657;28;20184;-73
2023/09/01 17:07:47;;;;;;;3.17;1.53;;;;;;;;;;5096154;28;20199;-73
2023/09/01 17:10:51;;;;;;;2.53;1.37;;;;;;;;;;5095467;28;20206;-73
2023/09/01 17:13:55;;;;;;;2.93;1.27;;;;;;;;;;5095386;28;20214;-73
2023/09/01 17:16:59;;;;;;;4.00;1.50;;;;;;;;;;5094867;28;20179;-72
2023/09/01 17:20:05;;;;;;;2.00;1.40;;;;;;;;;;5094801;28;20179;-72
2023/09/01 17:23:10;;;;;;;7.17;1.60;;;;;;;;;;5095031;28;20223;-72
2023/09/01 17:26:14;;;;;;;2.00;1.57;;;;;;;;;;5095387;28;20175;-72
2023/09/01 17:29:18;;;;;;;3.57;1.37;;;;;;;;;;5095147;28;20174;-72
2023/09/01 17:32:22;;;;;;;3.93;1.47;;;;;;;;;;5095127;28;20214;-72
2023/09/01 17:35:26;;;;;;;1.73;1.50;;;;;;;;;;5095265;28;20174;-72
2023/09/01 17:38:31;;;;;;;3.00;1.53;;;;;;;;;;5094959;28;20174;-72
2023/09/01 17:41:37;;;;;;;2.20;1.50;;;;;;;;;;5094946;28;20519;-72
2023/09/01 17:44:41;;;;;;;1.97;1.70;;;;;;;;;;5095374;28;20183;-72
2023/09/01 17:47:47;;;;;;;5.07;1.90;;;;;;;;;;5094787;28;20511;-72
2023/09/01 17:50:51;;;;;;;3.27;1.60;;;;;;;;;;5094709;28;20538;-71
2023/09/01 17:53:56;;;;;;;2.00;1.50;;;;;;;;;;5094589;28;20206;-72
2023/09/01 17:57:04;;;;;;;2.90;1.63;;;;;;;;;;5093934;28;20175;-71
2023/09/01 18:00:10;;;;;;;4.07;1.53;;;;;;;;;;5094640;28;20179;-72
2023/09/01 18:03:14;;;;;;;3.17;1.43;;;;;;;;;;5082279;28;20226;-72
2023/09/01 18:06:18;;;;;;;3.03;1.53;;;;;;;;;;5093728;28;20202;-72
2023/09/01 18:09:22;;;;;;;1.63;1.50;;;;;;;;;;5094500;28;20178;-72
2023/09/01 18:12:27;;;;;;;6.27;1.50;;;;;;;;;;5094289;28;20214;-72
2023/09/01 18:15:31;;;;;;;2.80;1.90;;;;;;;;;;5094179;28;20179;-72
2023/09/01 18:18:37;;;;;;;1.83;1.50;;;;;;;;;;5094331;28;20175;-72
2023/09/01 18:21:41;;;;;;;2.97;1.60;;;;;;;;;;5094249;28;20174;-72
2023/09/01 18:24:45;;;;;;;1.93;1.30;;;;;;;;;;5094387;28;20179;-72
2023/09/01 18:27:50;;;;;;;2.63;1.80;;;;;;;;;;5093264;28;20178;-72
2023/09/01 18:30:54;;;;;;;4.27;1.60;;;;;;;;;;5094322;28;20621;-72